Bottineau, North Dakota
Current Conditions -  °F | °C
As of 4:55 PM on Friday 28 Nov 2014 (Local Time) from KRUG Reporting Station
Broken Clouds Broken Clouds  
Wind Chill: -4°   Ceiling: 800
Heat Index: 10°   Visibility: 10mi
Dew Point:   Wind: 12mph
Humidity: 92%   Direction: 130°SE
Pressure: 29.62"   Gusts: NA
Location:  48.83°N, 100.45°W
Report Text: KRUG 282255Z AUTO 13010KT 10SM BKN008 M12/M13 A2962 RMK AO2
Loading
Personal Weather Stations






























Interactive Weather Map New forecast layout! Learn more

10-Day Weather Forecast

Advertisements
Track Severe Weather on mobile